createdAt,value
2022-12-09T00:04:31.345Z,94484.06
2022-12-09T00:09:34.202Z,94469.34
2022-12-09T00:14:38.813Z,94472.03
2022-12-09T00:19:41.645Z,94793.41
2022-12-09T00:24:44.641Z,94520.47
2022-12-09T00:29:49.062Z,94468.72
2022-12-09T00:34:51.833Z,94449.66
2022-12-09T00:39:54.588Z,94462.69
2022-12-09T00:44:58.881Z,94405.59
2022-12-09T00:50:01.853Z,94351.13
2022-12-09T00:55:05.230Z,94327.94
2022-12-09T01:00:11.162Z,94316.81
2022-12-09T01:05:14.318Z,94287.34
2022-12-09T01:10:17.356Z,94330.13
2022-12-09T01:15:21.559Z,94307.53
2022-12-09T01:20:24.665Z,94330.13
2022-12-09T01:25:27.797Z,94496.63
2022-12-09T01:30:32.126Z,94466.66
2022-12-09T01:35:34.920Z,94448.66
2022-12-09T01:40:39.817Z,94490.13
2022-12-09T01:45:44.942Z,94463.25
2022-12-09T01:50:51.660Z,94395.81
2022-12-09T01:55:55.705Z,94375.06
2022-12-09T02:01:00.144Z,94373.53
2022-12-09T02:06:03.234Z,94422.69
2022-12-09T02:11:11.275Z,94434.69
2022-12-09T02:16:23.215Z,94373.44
2022-12-09T02:21:28.287Z,94376.22
2022-12-09T02:26:37.234Z,94396.06
2022-12-09T02:31:54.324Z,94395.25
2022-12-09T02:37:05.011Z,94389.19
2022-12-09T02:42:09.979Z,94415.19
2022-12-09T02:47:14.529Z,94851.09
2022-12-09T02:52:20.424Z,94643.47
2022-12-09T02:57:26.190Z,94666.06
2022-12-09T03:02:31.174Z,94841.38
2022-12-09T03:07:42.118Z,94782.50
2022-12-09T03:12:49.267Z,94752.38
2022-12-09T03:17:54.034Z,94935.31
2022-12-09T03:23:01.413Z,94824.81
2022-12-09T03:28:06.781Z,94888.75
2022-12-09T03:33:10.554Z,95002.44
2022-12-09T03:38:17.844Z,94957.56
2022-12-09T03:43:24.439Z,94894.63
2022-12-09T03:48:27.469Z,94838.50
2022-12-09T03:53:35.570Z,94775.50
2022-12-09T03:58:42.262Z,94699.41
2022-12-09T04:03:45.275Z,94678.69
2022-12-09T04:08:50.255Z,94683.84
2022-12-09T04:13:53.421Z,94705.53
2022-12-09T04:18:56.317Z,94689.00
2022-12-09T04:24:00.429Z,94671.69
2022-12-09T04:29:03.263Z,94696.81
2022-12-09T04:34:09.582Z,94695.16
2022-12-09T04:39:14.525Z,94681.19
2022-12-09T04:44:17.500Z,94733.94
2022-12-09T04:49:20.557Z,94803.97
2022-12-09T04:54:24.823Z,94862.53
2022-12-09T04:59:28.913Z,94859.88
2022-12-09T05:04:32.038Z,94885.88
2022-12-09T05:09:36.594Z,94844.47
2022-12-09T05:14:39.519Z,94828.94
2022-12-09T05:19:42.609Z,94910.06
2022-12-09T05:24:47.571Z,94936.88
2022-12-09T05:29:50.487Z,94855.69
2022-12-09T05:34:53.382Z,94867.75
2022-12-09T05:39:57.678Z,95070.47
2022-12-09T05:45:00.462Z,95057.44
2022-12-09T05:50:10.963Z,95099.63
2022-12-09T05:55:16.014Z,95130.69
2022-12-09T06:00:19.864Z,95208.25
2022-12-09T06:05:26.240Z,95094.41
2022-12-09T06:10:31.936Z,95134.91
2022-12-09T06:15:35.317Z,95181.47
2022-12-09T06:20:40.627Z,95220.31
2022-12-09T06:25:46.603Z,95335.91
2022-12-09T06:30:49.536Z,95472.22
2022-12-09T06:35:52.771Z,95306.56
2022-12-09T06:40:57.660Z,96104.84
2022-12-09T06:46:00.606Z,95091.78
2022-12-09T06:51:03.331Z,94989.09
2022-12-09T06:56:12.720Z,95068.47
2022-12-09T07:01:18.274Z,94975.22
2022-12-09T07:06:26.796Z,95074.44
2022-12-09T07:11:31.827Z,95122.78
2022-12-09T07:16:35.127Z,95188.41
2022-12-09T07:21:38.366Z,95201.31
2022-12-09T07:26:43.294Z,95291.94
2022-12-09T07:31:47.747Z,95517.09
2022-12-09T07:36:50.792Z,94853.59
2022-12-09T07:41:56.920Z,94781.22
2022-12-09T07:47:04.781Z,94765.63
2022-12-09T07:52:07.756Z,94547.41
2022-12-09T07:57:12.062Z,93923.19
2022-12-09T08:02:14.825Z,93778.16
2022-12-09T08:07:17.738Z,93414.00
2022-12-09T08:12:22.505Z,93842.50
2022-12-09T08:17:26.904Z,93810.97
2022-12-09T08:22:30.642Z,93972.81
2022-12-09T08:27:35.216Z,94153.28
2022-12-09T08:32:38.081Z,94429.09
2022-12-09T08:37:41.852Z,94490.28
2022-12-09T08:42:45.911Z,94516.72
2022-12-09T08:47:49.388Z,94554.00
2022-12-09T08:52:52.676Z,94588.50
2022-12-09T08:57:58.202Z,94597.03
2022-12-09T09:03:01.131Z,94594.41
2022-12-09T09:08:04.241Z,94559.63
2022-12-09T09:13:08.936Z,94537.22
2022-12-09T09:18:11.884Z,94455.16
2022-12-09T09:23:15.131Z,94464.03
2022-12-09T09:28:19.463Z,94423.19
2022-12-09T09:33:22.543Z,94378.88
2022-12-09T09:38:25.821Z,94337.50
2022-12-09T09:43:32.822Z,94443.25
2022-12-09T09:48:37.463Z,94354.97
2022-12-09T09:53:41.164Z,94273.66
2022-12-09T09:58:53.390Z,94203.41
2022-12-09T10:04:01.791Z,94213.34
2022-12-09T10:09:06.698Z,94188.25
2022-12-09T10:14:16.490Z,94117.97
2022-12-09T10:19:33.549Z,94277.84
2022-12-09T10:24:40.440Z,94079.06
2022-12-09T10:29:54.263Z,94012.44
2022-12-09T10:34:57.413Z,93947.41
2022-12-09T10:40:05.004Z,93913.50
2022-12-09T10:45:13.569Z,93842.22
2022-12-09T10:50:28.312Z,93843.97
2022-12-09T10:55:34.303Z,93802.88
2022-12-09T11:00:38.393Z,93797.03
2022-12-09T11:05:42.133Z,93747.75
2022-12-09T11:10:49.558Z,93713.66
2022-12-09T11:15:59.449Z,93664.13
2022-12-09T11:21:04.000Z,93638.03
2022-12-09T11:26:11.765Z,93715.88
2022-12-09T11:31:35.000Z,93689.94
2022-12-09T11:36:43.693Z,93644.50
2022-12-09T11:42:06.697Z,93603.69
2022-12-09T11:47:13.969Z,93640.03
2022-12-09T11:52:25.079Z,93661.69
2022-12-09T11:57:34.274Z,93594.69
2022-12-09T12:02:42.161Z,93608.56
2022-12-09T12:07:48.587Z,93635.66
2022-12-09T12:13:00.234Z,93636.50
2022-12-09T12:18:06.177Z,93670.00
2022-12-09T12:23:16.561Z,93664.63
2022-12-09T12:28:43.596Z,93655.94
2022-12-09T12:34:23.531Z,94013.88
2022-12-09T12:39:34.440Z,93846.47
2022-12-09T12:45:01.500Z,93860.63
2022-12-09T12:50:28.399Z,93736.16
2022-12-09T12:55:44.857Z,93763.03
2022-12-09T13:00:56.455Z,93722.50
2022-12-09T13:06:01.538Z,93669.53
2022-12-09T13:11:08.596Z,93684.41
2022-12-09T13:16:17.541Z,93696.75
2022-12-09T13:21:22.158Z,93664.53
2022-12-09T13:26:31.880Z,93648.00
2022-12-09T13:31:36.555Z,93653.53
2022-12-09T13:36:42.317Z,93622.31
2022-12-09T13:42:03.731Z,93612.66
2022-12-09T13:47:17.630Z,93597.72
2022-12-09T13:52:41.015Z,93650.16
2022-12-09T13:57:48.926Z,93657.75
2022-12-09T14:02:54.632Z,93694.94
2022-12-09T14:08:01.365Z,93697.28
2022-12-09T14:13:20.082Z,93774.69
2022-12-09T14:18:33.000Z,93779.78
2022-12-09T14:23:38.232Z,93842.22
2022-12-09T14:28:58.534Z,93867.38
2022-12-09T14:34:01.320Z,93871.59
2022-12-09T14:39:24.167Z,93921.19
2022-12-09T14:44:31.599Z,93941.81
2022-12-09T14:49:37.875Z,93977.50
2022-12-09T14:54:49.311Z,94006.97
2022-12-09T14:59:55.483Z,94037.34
2022-12-09T15:05:00.780Z,94059.06
2022-12-09T15:10:08.005Z,94114.84
2022-12-09T15:15:14.690Z,94144.47
2022-12-09T15:20:23.244Z,94140.25
2022-12-09T15:25:27.689Z,94110.78
2022-12-09T15:30:33.913Z,94158.53
2022-12-09T15:35:36.775Z,94125.47
2022-12-09T15:41:01.207Z,94163.72
2022-12-09T15:46:04.378Z,94164.56
2022-12-09T15:51:08.702Z,94181.00
2022-12-09T15:56:15.989Z,94215.81
2022-12-09T16:01:21.322Z,94240.16
2022-12-09T16:06:26.795Z,94259.25
2022-12-09T16:11:38.531Z,94260.97
2022-12-09T16:16:45.409Z,94259.34
2022-12-09T16:21:48.159Z,94260.22
2022-12-09T16:26:53.422Z,94241.94
2022-12-09T16:32:19.735Z,94274.00
2022-12-09T16:37:23.734Z,94283.50
2022-12-09T16:42:36.482Z,94303.38
2022-12-09T16:47:42.061Z,94284.19
2022-12-09T16:52:44.827Z,94297.19
2022-12-09T16:57:49.377Z,94278.88
2022-12-09T17:02:54.883Z,94359.50
2022-12-09T17:07:57.681Z,94334.22
2022-12-09T17:13:02.747Z,94341.06
2022-12-09T17:18:05.579Z,94347.13
2022-12-09T17:23:08.343Z,94357.44
2022-12-09T17:28:12.413Z,94376.41
2022-12-09T17:33:15.121Z,94351.16
2022-12-09T17:38:17.921Z,94364.09
2022-12-09T17:43:22.104Z,94376.09
2022-12-09T17:48:24.819Z,94380.34
2022-12-09T17:53:27.548Z,94407.25
2022-12-09T17:58:31.631Z,94408.00
2022-12-09T18:03:54.913Z,94439.19
2022-12-09T18:08:57.024Z,94440.84
2022-12-09T18:14:01.394Z,94437.31
2022-12-09T18:19:04.854Z,94461.50
2022-12-09T18:24:08.360Z,94426.72
2022-12-09T18:29:13.132Z,94424.06
2022-12-09T18:34:16.025Z,94456.13
2022-12-09T18:39:19.471Z,94489.00
2022-12-09T18:44:23.547Z,94500.22
2022-12-09T18:49:28.413Z,94519.97
2022-12-09T18:54:32.531Z,94545.19
2022-12-09T18:59:36.675Z,94540.84
2022-12-09T19:04:39.391Z,94559.03
2022-12-09T19:09:42.817Z,94553.84
2022-12-09T19:14:46.886Z,94569.47
2022-12-09T19:19:49.795Z,94585.03
2022-12-09T19:24:52.525Z,94571.94
2022-12-09T19:29:56.630Z,94599.63
2022-12-09T19:34:59.488Z,94640.22
2022-12-09T19:40:02.215Z,94660.09
2022-12-09T19:45:12.120Z,94644.34
2022-12-09T19:50:17.114Z,94691.06
2022-12-09T19:55:20.072Z,94704.88
2022-12-09T20:00:24.312Z,94728.28
2022-12-09T20:05:27.376Z,94739.44
2022-12-09T20:10:30.077Z,94726.44
2022-12-09T20:15:37.096Z,94741.13
2022-12-09T20:20:44.257Z,94774.00
2022-12-09T20:25:49.977Z,94807.72
2022-12-09T20:30:54.071Z,94837.97
2022-12-09T20:35:58.676Z,94877.72
2022-12-09T20:41:03.766Z,94924.34
2022-12-09T20:46:09.146Z,94949.41
2022-12-09T20:51:14.268Z,94992.63
2022-12-09T20:56:17.922Z,95014.19
2022-12-09T21:01:23.413Z,95033.19
2022-12-09T21:06:30.116Z,95054.75
2022-12-09T21:11:32.993Z,95096.19
2022-12-09T21:16:39.627Z,95111.72
2022-12-09T21:21:46.593Z,95122.06
2022-12-09T21:26:50.126Z,95147.09
2022-12-09T21:31:54.433Z,95174.69
2022-12-09T21:36:57.194Z,95203.16
2022-12-09T21:41:59.898Z,95257.44
2022-12-09T21:47:05.293Z,95245.38
2022-12-09T21:52:08.950Z,95262.59
2022-12-09T21:57:11.678Z,95267.78
2022-12-09T22:02:15.834Z,95289.28
2022-12-09T22:07:18.550Z,95303.09
2022-12-09T22:12:21.228Z,95300.50
2022-12-09T22:17:25.262Z,95352.16
2022-12-09T22:22:27.994Z,95354.75
2022-12-09T22:27:30.714Z,95364.22
2022-12-09T22:32:40.715Z,95375.41
2022-12-09T22:37:44.411Z,95405.50
2022-12-09T22:42:47.204Z,95416.69
2022-12-09T22:47:51.246Z,95441.63
2022-12-09T22:52:53.934Z,95439.09
2022-12-09T22:57:56.634Z,95464.84
2022-12-09T23:03:00.859Z,95507.81
2022-12-09T23:08:03.690Z,95519.00
2022-12-09T23:13:06.727Z,95519.00
2022-12-09T23:18:10.794Z,95543.88
2022-12-09T23:23:13.495Z,95537.84
2022-12-09T23:28:16.169Z,95569.59
2022-12-09T23:33:20.219Z,95590.13
2022-12-09T23:38:22.946Z,95584.19
2022-12-09T23:43:25.638Z,95582.59
2022-12-09T23:48:29.784Z,95556.78
2022-12-09T23:53:32.724Z,95552.47
2022-12-09T23:58:35.429Z,95570.53
